Time;durP1;ratioP1;P1;durP2;ratioP2;P2;SDS_P1;SDS_P2;PMS_P1;PMS_P2;Temp;Humidity;BMP_temperature;BMP_pressure;BME280_temperature;BME280_humidity;BME280_pressure;Samples;Min_cycle;Max_cycle;Signal;HPM_P1;HPM_P2
2023/03/19 00:02:12;;;;;;;3.83;2.20;;;;;;;11.16;93.69;100992.53;5092777;28;20028;-67
2023/03/19 00:04:38;;;;;;;2.65;1.98;;;;;;;11.15;93.28;100989.00;5092979;28;20024;-67
2023/03/19 00:07:03;;;;;;;4.80;2.33;;;;;;;11.14;93.55;100989.88;5092581;28;20023;-67
2023/03/19 00:09:29;;;;;;;4.00;2.17;;;;;;;11.14;93.25;100992.53;5092641;28;20481;-66
2023/03/19 00:11:55;;;;;;;3.10;2.10;;;;;;;11.18;93.64;100997.00;5092684;28;20066;-67
2023/03/19 00:14:21;;;;;;;3.33;2.13;;;;;;;11.17;93.48;100989.91;5092477;28;20055;-66
2023/03/19 00:16:46;;;;;;;2.63;1.90;;;;;;;11.15;94.05;100993.41;5092847;28;20445;-68
2023/03/19 00:19:12;;;;;;;4.55;2.20;;;;;;;11.13;93.57;100990.72;5092605;28;20541;-67
2023/03/19 00:21:37;;;;;;;3.28;2.15;;;;;;;11.14;93.79;100994.28;5092880;28;20036;-67
2023/03/19 00:24:03;;;;;;;3.60;2.10;;;;;;;11.13;93.97;100996.03;5074623;28;20393;-67
2023/03/19 00:26:30;;;;;;;4.30;2.25;;;;;;;11.10;94.28;100996.00;5092659;28;20036;-66
2023/03/19 00:28:56;;;;;;;4.45;2.20;;;;;;;11.03;94.65;100996.81;5092721;28;20020;-67
2023/03/19 00:31:22;;;;;;;3.42;2.10;;;;;;;11.04;94.47;101001.22;5074504;28;20114;-66
2023/03/19 00:33:48;;;;;;;3.33;2.00;;;;;;;10.99;94.92;101003.81;5092932;28;20118;-67
2023/03/19 00:36:15;;;;;;;4.60;2.30;;;;;;;11.01;95.68;101003.84;5092716;28;20028;-67
2023/03/19 00:38:40;;;;;;;3.25;2.15;;;;;;;11.02;95.54;101003.84;5092805;28;20036;-67
2023/03/19 00:41:06;;;;;;;6.60;3.90;;;;;;;10.97;95.88;101008.22;5092140;28;20039;-66
2023/03/19 00:43:32;;;;;;;4.90;2.55;;;;;;;10.98;96.12;101001.16;5076646;28;20028;-66
2023/03/19 00:45:59;;;;;;;5.43;2.50;;;;;;;11.03;95.96;101010.91;5096333;28;20116;-67
2023/03/19 00:48:25;;;;;;;5.13;2.40;;;;;;;11.06;95.34;101007.44;5078187;28;20032;-67
2023/03/19 00:50:50;;;;;;;4.68;2.40;;;;;;;11.06;95.66;100995.97;5096382;28;20047;-66
2023/03/19 00:53:16;;;;;;;4.50;2.80;;;;;;;11.02;95.51;100997.69;5096404;28;20055;-67
2023/03/19 00:55:42;;;;;;;4.78;2.42;;;;;;;11.04;96.15;101006.50;5096070;28;20024;-66
2023/03/19 00:58:09;;;;;;;5.65;2.60;;;;;;;10.99;96.14;101003.81;5096093;28;20100;-67
2023/03/19 01:00:35;;;;;;;4.82;2.70;;;;;;;11.02;96.29;101009.16;5096352;28;20025;-67
2023/03/19 01:03:01;;;;;;;4.80;2.88;;;;;;;11.00;95.74;101008.22;5095964;28;20404;-67
2023/03/19 01:05:27;;;;;;;4.47;2.70;;;;;;;10.99;95.80;101009.09;5095953;28;20035;-67
2023/03/19 01:07:53;;;;;;;4.35;2.60;;;;;;;10.96;95.97;101011.72;5095752;28;20048;-67
2023/03/19 01:10:22;;;;;;;4.55;2.85;;;;;;;10.95;96.28;101015.22;5095695;28;20050;-66
2023/03/19 01:12:48;;;;;;;4.75;2.63;;;;;;;10.92;96.82;101014.28;5095762;28;20024;-67
2023/03/19 01:15:14;;;;;;;5.50;2.45;;;;;;;10.92;96.63;101016.94;5095889;28;20035;-66
2023/03/19 01:17:41;;;;;;;4.60;2.88;;;;;;;10.91;96.36;101009.88;5077549;28;20028;-66
2023/03/19 01:20:11;;;;;;;4.75;2.75;;;;;;;10.89;96.84;101020.44;5095661;28;20024;-66
2023/03/19 01:22:38;;;;;;;5.68;2.65;;;;;;;10.86;96.85;101016.88;5095876;28;20115;-66
2023/03/19 01:25:04;;;;;;;4.82;2.72;;;;;;;10.83;96.88;101009.78;5095795;28;20422;-67
2023/03/19 01:27:30;;;;;;;5.35;2.90;;;;;;;10.84;97.21;101011.59;5095528;28;20040;-67
2023/03/19 01:29:55;;;;;;;4.82;2.80;;;;;;;10.82;97.30;101012.41;5095785;28;20171;-66
2023/03/19 01:32:22;;;;;;;4.28;2.85;;;;;;;10.85;97.04;101007.19;5095658;28;20116;-67
2023/03/19 01:34:47;;;;;;;6.78;3.00;;;;;;;10.83;97.31;101004.50;5077444;28;20031;-66
2023/03/19 01:37:13;;;;;;;4.85;2.85;;;;;;;10.84;97.37;101008.94;5095399;28;20028;-66
2023/03/19 01:39:38;;;;;;;5.53;3.17;;;;;;;10.82;97.93;101008.00;5095100;28;20035;-67
2023/03/19 01:42:04;;;;;;;4.65;3.10;;;;;;;10.78;98.10;101000.91;5095300;28;20169;-67
2023/03/19 01:44:38;;;;;;;5.25;3.13;;;;;;;10.76;98.33;101005.31;5094955;28;20032;-66
2023/03/19 01:47:07;;;;;;;6.05;3.30;;;;;;;10.73;98.24;101002.63;5095133;28;20081;-66
2023/03/19 01:49:33;;;;;;;5.72;3.38;;;;;;;10.72;98.39;101007.03;5095031;28;20358;-67
2023/03/19 01:52:02;;;;;;;7.15;3.35;;;;;;;10.73;98.59;101007.91;5076765;28;20118;-67
2023/03/19 01:54:30;;;;;;;4.88;3.45;;;;;;;10.74;98.50;101009.66;5093995;28;20469;-66
2023/03/19 01:57:04;;;;;;;5.22;3.15;;;;;;;10.76;98.41;101005.31;5094827;28;20477;-66
2023/03/19 01:59:34;;;;;;;5.55;3.28;;;;;;;10.73;98.67;101007.91;5094894;28;20077;-67
2023/03/19 02:02:14;;;;;;;6.63;3.42;;;;;;;10.72;98.41;101004.38;5094845;28;20036;-66
2023/03/19 02:04:42;;;;;;;5.57;3.30;;;;;;;10.70;99.00;101006.09;5094918;28;20553;-67
2023/03/19 02:07:08;;;;;;;6.95;3.67;;;;;;;10.72;99.10;101007.03;5094988;28;20100;-66
2023/03/19 02:09:35;;;;;;;5.05;3.30;;;;;;;10.72;98.88;101007.03;5094414;28;20497;-66
2023/03/19 02:12:01;;;;;;;4.75;2.97;;;;;;;10.73;98.85;100995.56;5076660;28;20054;-66
2023/03/19 02:14:27;;;;;;;5.85;3.25;;;;;;;10.73;99.10;101010.53;5094446;28;20020;-66
2023/03/19 02:16:54;;;;;;;6.85;3.38;;;;;;;10.76;98.63;101005.31;5094503;28;20032;-66
2023/03/19 02:19:32;;;;;;;8.07;3.50;;;;;;;10.74;99.27;101007.03;5094481;28;20107;-66
2023/03/19 02:22:00;;;;;;;9.10;3.42;;;;;;;10.74;99.76;100996.44;5094390;28;20488;-67
2023/03/19 02:24:32;;;;;;;8.50;3.83;;;;;;;10.76;99.49;101005.31;5094272;28;20036;-66
2023/03/19 02:26:58;;;;;;;5.85;3.47;;;;;;;10.80;98.94;101009.75;5094288;28;20028;-66
2023/03/19 02:29:24;;;;;;;6.40;3.70;;;;;;;10.80;99.07;101012.41;5094488;28;20028;-66
2023/03/19 02:31:50;;;;;;;5.05;3.55;;;;;;;10.76;99.78;101010.59;5094078;28;20030;-66
2023/03/19 02:34:18;;;;;;;5.43;3.88;;;;;;;10.77;99.76;101013.25;5094415;28;20016;-66
2023/03/19 02:36:50;;;;;;;6.93;4.00;;;;;;;10.75;99.35;101007.06;5094099;28;20118;-66
2023/03/19 02:39:45;;;;;;;6.20;4.07;;;;;;;10.76;99.32;101003.53;5094113;28;20028;-66
2023/03/19 02:42:13;;;;;;;5.13;3.55;;;;;;;10.76;99.57;101008.84;5094331;28;20032;-66
2023/03/19 02:44:39;;;;;;;6.38;3.95;;;;;;;10.76;99.28;101007.94;5094042;28;20038;-67
2023/03/19 02:47:04;;;;;;;5.53;3.72;;;;;;;10.77;99.23;101004.44;5093973;28;20119;-66
2023/03/19 02:49:30;;;;;;;5.88;3.45;;;;;;;10.80;99.07;101012.41;5094017;28;20028;-66
2023/03/19 02:51:55;;;;;;;6.03;4.43;;;;;;;10.82;98.69;101018.59;5094127;28;20040;-66
2023/03/19 02:54:21;;;;;;;6.00;3.97;;;;;;;10.82;98.38;101021.22;5058980;28;20500;-66
2023/03/19 02:56:47;;;;;;;6.20;3.63;;;;;;;10.81;98.66;101019.47;5093782;28;20052;-66
2023/03/19 02:59:13;;;;;;;5.90;3.70;;;;;;;10.81;98.87;101019.47;5094007;28;20109;-66
2023/03/19 03:01:40;;;;;;;6.90;3.88;;;;;;;10.82;99.05;101030.91;5093763;28;20055;-66
2023/03/19 03:04:06;;;;;;;4.97;3.78;;;;;;;10.80;99.28;101030.91;5093595;28;20028;-66
2023/03/19 03:06:31;;;;;;;8.30;4.05;;;;;;;10.78;99.41;101024.69;5093541;28;20020;-66
2023/03/19 03:08:57;;;;;;;5.57;4.00;;;;;;;10.74;99.70;101028.16;5093491;28;20048;-66
2023/03/19 03:11:22;;;;;;;7.18;4.07;;;;;;;10.74;99.63;101029.06;5093442;28;20077;-66
2023/03/19 03:13:48;;;;;;;5.60;4.07;;;;;;;10.74;99.60;101034.34;5093606;28;20028;-66
2023/03/19 03:16:14;;;;;;;5.78;4.05;;;;;;;10.75;99.51;101025.56;5093546;28;20035;-66
2023/03/19 03:18:40;;;;;;;6.05;3.90;;;;;;;10.76;99.14;101024.69;5075435;28;20485;-66
2023/03/19 03:21:05;;;;;;;9.45;3.97;;;;;;;10.76;99.31;101027.34;5093649;28;20110;-66
2023/03/19 03:23:31;;;;;;;5.53;3.90;;;;;;;10.77;99.51;101021.16;5093435;28;20032;-66
2023/03/19 03:25:56;;;;;;;6.60;4.20;;;;;;;10.76;99.57;101027.34;5075076;28;20469;-66
2023/03/19 03:28:22;;;;;;;6.82;4.05;;;;;;;10.76;99.58;101026.44;5075236;28;20028;-66
2023/03/19 03:30:48;;;;;;;7.30;4.50;;;;;;;10.72;99.98;101030.81;5093141;28;20035;-66
2023/03/19 03:33:14;;;;;;;6.10;4.28;;;;;;;10.72;100.00;101028.16;5093552;28;20028;-66
2023/03/19 03:35:39;;;;;;;6.90;4.25;;;;;;;10.70;99.88;101026.34;5075152;28;20127;-66
2023/03/19 03:38:05;;;;;;;6.50;4.38;;;;;;;10.67;100.00;101031.63;5093402;28;20063;-66
2023/03/19 03:40:32;;;;;;;6.70;4.38;;;;;;;10.66;100.00;101025.44;5093074;28;20051;-66
2023/03/19 03:42:57;;;;;;;9.95;4.90;;;;;;;10.67;100.00;101026.34;5093181;28;20028;-66
2023/03/19 03:45:23;;;;;;;7.68;4.57;;;;;;;10.67;100.00;101031.63;5093157;28;20024;-66
2023/03/19 03:47:48;;;;;;;7.30;4.93;;;;;;;10.65;100.00;101031.59;5093148;28;20029;-66
2023/03/19 03:50:14;;;;;;;7.18;5.13;;;;;;;10.63;100.00;101030.69;5093366;28;20032;-66
2023/03/19 03:52:40;;;;;;;7.32;4.88;;;;;;;10.59;100.00;101035.91;5092995;28;20028;-66
2023/03/19 03:55:07;;;;;;;6.93;4.53;;;;;;;10.57;100.00;101041.16;5093192;28;20372;-66
2023/03/19 03:57:33;;;;;;;6.47;4.68;;;;;;;10.51;100.00;101043.72;5075213;28;20393;-66
2023/03/19 03:59:59;;;;;;;8.60;4.72;;;;;;;10.47;100.00;101041.91;5093004;28;20032;-66
2023/03/19 04:02:26;;;;;;;7.22;4.63;;;;;;;10.42;100.00;101055.06;5093197;28;20035;-66
2023/03/19 04:04:52;;;;;;;7.72;4.82;;;;;;;10.37;100.00;101047.94;5075470;28;20082;-66
2023/03/19 04:07:17;;;;;;;6.90;4.72;;;;;;;10.36;100.00;101056.69;5093019;28;20481;-67
2023/03/19 04:09:43;;;;;;;7.80;5.30;;;;;;;10.32;100.00;101053.16;5093067;28;20024;-66
2023/03/19 04:12:08;;;;;;;10.55;5.25;;;;;;;10.30;100.00;101052.22;5092779;28;20358;-66
2023/03/19 04:14:34;;;;;;;12.15;5.35;;;;;;;10.31;100.00;101047.81;5093009;28;20102;-66
2023/03/19 04:17:00;;;;;;;9.75;5.38;;;;;;;10.25;100.00;101046.00;5092828;28;20469;-67
2023/03/19 04:19:26;;;;;;;7.15;5.28;;;;;;;10.21;100.00;101047.66;5096668;28;20461;-66
2023/03/19 04:21:51;;;;;;;9.00;5.57;;;;;;;10.17;100.00;101044.94;5097068;28;20039;-66
2023/03/19 04:24:17;;;;;;;8.90;5.40;;;;;;;10.15;100.00;101050.22;5096770;28;20024;-66
2023/03/19 04:26:42;;;;;;;7.43;5.07;;;;;;;10.13;100.00;101048.41;5096538;28;20055;-66
2023/03/19 04:29:09;;;;;;;8.30;5.72;;;;;;;10.11;100.00;101051.03;5096667;28;20072;-66
2023/03/19 04:31:34;;;;;;;9.55;5.57;;;;;;;10.09;100.00;101059.78;5096828;28;20352;-66
2023/03/19 04:33:59;;;;;;;9.88;5.78;;;;;;;10.06;100.00;101057.06;5096712;28;20034;-66
2023/03/19 04:36:25;;;;;;;7.68;5.78;;;;;;;10.06;100.00;101052.69;5096746;28;20555;-66
2023/03/19 04:38:51;;;;;;;13.38;5.72;;;;;;;10.02;100.00;101056.13;5096528;28;20023;-66
2023/03/19 04:41:16;;;;;;;9.00;5.32;;;;;;;10.02;100.00;101064.06;5096544;28;20020;-66
2023/03/19 04:43:43;;;;;;;9.88;5.82;;;;;;;9.99;100.00;101045.53;5096266;28;20477;-66
2023/03/19 04:46:09;;;;;;;8.52;5.45;;;;;;;9.95;100.00;101043.72;5096331;28;20033;-66
2023/03/19 04:48:34;;;;;;;8.32;5.47;;;;;;;9.97;100.00;101057.81;5096271;28;20032;-66
2023/03/19 04:51:03;;;;;;;8.52;5.57;;;;;;;9.95;100.00;101047.25;5077846;28;20472;-66
2023/03/19 04:53:28;;;;;;;9.57;5.82;;;;;;;9.94;100.00;101057.78;5095909;28;20020;-66
2023/03/19 04:55:54;;;;;;;7.57;5.50;;;;;;;9.91;100.00;101061.25;5095911;28;20077;-66
2023/03/19 04:58:21;;;;;;;9.75;5.63;;;;;;;9.88;100.00;101057.66;5095872;28;20046;-66
2023/03/19 05:00:46;;;;;;;7.13;5.38;;;;;;;9.83;100.00;101065.50;5095844;28;20017;-66
2023/03/19 05:03:15;;;;;;;7.72;5.55;;;;;;;9.84;100.00;101071.66;5095574;28;20451;-66
2023/03/19 05:05:41;;;;;;;8.63;5.70;;;;;;;9.83;100.00;101067.25;5095603;28;20485;-66
2023/03/19 05:08:07;;;;;;;9.27;6.07;;;;;;;9.79;100.00;101069.84;5095552;28;20040;-66
2023/03/19 05:10:33;;;;;;;9.10;6.18;;;;;;;9.75;100.00;101075.03;5077160;28;20127;-66
2023/03/19 05:13:00;;;;;;;11.00;6.43;;;;;;;9.76;100.00;101079.44;5095353;28;20020;-66
2023/03/19 05:15:26;;;;;;;9.98;6.65;;;;;;;9.77;100.00;101082.13;5077160;28;20027;-66
2023/03/19 05:17:51;;;;;;;11.60;7.80;;;;;;;9.81;100.00;101077.81;5095500;28;20377;-66
2023/03/19 05:20:17;;;;;;;10.50;8.07;;;;;;;9.77;100.00;101078.63;5095515;28;20030;-66
2023/03/19 05:22:42;;;;;;;12.43;8.40;;;;;;;9.75;100.00;101081.19;5095277;28;20165;-66
2023/03/19 05:25:08;;;;;;;10.63;7.93;;;;;;;9.71;100.00;101086.41;5095424;28;20032;-66
2023/03/19 05:27:34;;;;;;;11.40;8.77;;;;;;;9.68;100.00;101087.25;5095082;28;20503;-67
2023/03/19 05:30:00;;;;;;;10.48;8.15;;;;;;;9.68;100.00;101084.63;5094123;28;20040;-66
2023/03/19 05:32:26;;;;;;;10.18;7.88;;;;;;;9.66;100.00;101086.31;5095051;28;20032;-66
2023/03/19 05:34:51;;;;;;;10.00;7.50;;;;;;;9.65;100.00;101084.53;5094981;28;20516;-66
2023/03/19 05:37:17;;;;;;;8.75;7.10;;;;;;;9.64;100.00;101085.41;5076789;28;20059;-65
2023/03/19 05:39:42;;;;;;;9.50;7.28;;;;;;;9.63;100.00;101086.25;5076831;28;20020;-66
2023/03/19 05:42:08;;;;;;;9.00;6.97;;;;;;;9.64;100.00;101103.88;5095039;28;20381;-66
2023/03/19 05:44:33;;;;;;;13.90;7.63;;;;;;;9.64;100.00;101103.88;5077001;28;20025;-66
2023/03/19 05:46:59;;;;;;;12.93;7.18;;;;;;;9.69;100.00;101101.34;5095059;28;20028;-66
2023/03/19 05:49:24;;;;;;;9.63;6.70;;;;;;;9.72;100.00;101099.63;5094985;28;20032;-66
2023/03/19 05:51:50;;;;;;;8.60;6.13;;;;;;;9.79;100.00;101098.88;5094902;28;20031;-66
2023/03/19 05:54:16;;;;;;;10.02;6.32;;;;;;;9.78;100.00;101107.66;5094987;28;20017;-66
2023/03/19 05:56:41;;;;;;;8.68;5.93;;;;;;;9.78;100.00;101112.94;5095005;28;20477;-66
2023/03/19 05:59:07;;;;;;;7.80;6.05;;;;;;;9.78;100.00;101107.66;5095108;28;20373;-66
2023/03/19 06:01:32;;;;;;;9.93;6.40;;;;;;;9.76;100.00;101108.47;5095136;28;20044;-66
2023/03/19 06:03:57;;;;;;;8.45;6.32;;;;;;;9.75;99.82;101115.50;5076756;28;20028;-66
2023/03/19 06:06:23;;;;;;;11.95;6.45;;;;;;;9.74;99.53;101115.50;5076909;28;20020;-66
2023/03/19 06:08:48;;;;;;;9.35;6.57;;;;;;;9.74;100.00;101105.81;5094531;28;20432;-66
2023/03/19 06:11:14;;;;;;;8.93;6.20;;;;;;;9.71;100.00;101112.78;5094503;28;20055;-66
2023/03/19 06:13:39;;;;;;;10.23;6.50;;;;;;;9.72;100.00;101114.56;5094436;28;20386;-66
2023/03/19 06:16:05;;;;;;;10.82;6.40;;;;;;;9.72;100.00;101127.75;5094857;28;20064;-66
2023/03/19 06:18:31;;;;;;;9.07;6.40;;;;;;;9.65;100.00;101121.50;5094512;28;20028;-66
2023/03/19 06:20:56;;;;;;;8.50;6.78;;;;;;;9.66;100.00;101130.28;5094369;28;20044;-66
2023/03/19 06:23:22;;;;;;;9.18;6.95;;;;;;;9.65;100.00;101134.69;5094427;28;20073;-65
2023/03/19 06:25:47;;;;;;;10.35;7.22;;;;;;;9.64;100.00;101132.91;5076432;28;20089;-66
2023/03/19 06:28:12;;;;;;;10.05;6.90;;;;;;;9.65;100.00;101139.97;5094586;28;20035;-66
2023/03/19 06:30:38;;;;;;;10.10;7.65;;;;;;;9.69;100.00;101144.44;5094263;28;20408;-66
2023/03/19 06:33:03;;;;;;;11.02;7.70;;;;;;;9.68;100.00;101141.78;5094626;28;20028;-66
2023/03/19 06:35:29;;;;;;;10.23;7.60;;;;;;;9.66;100.00;101144.38;5094221;28;20366;-66
2023/03/19 06:37:55;;;;;;;12.00;7.57;;;;;;;9.65;100.00;101147.00;5076321;28;20150;-65
2023/03/19 06:40:21;;;;;;;12.15;8.23;;;;;;;9.65;100.00;101155.78;5075492;28;20024;-66
2023/03/19 06:42:47;;;;;;;12.43;9.23;;;;;;;9.68;100.00;101149.69;5094137;28;20484;-66
2023/03/19 06:45:18;;;;;;;13.35;9.18;;;;;;;9.66;100.00;101146.13;5093832;28;20066;-66
2023/03/19 06:47:45;;;;;;;11.25;8.63;;;;;;;9.72;100.00;101156.78;5094316;28;20058;-66
2023/03/19 06:50:12;;;;;;;12.52;9.02;;;;;;;9.74;100.00;101168.28;5094019;28;20469;-66
2023/03/19 06:52:39;;;;;;;12.98;9.23;;;;;;;9.72;100.00;101157.69;5075876;28;20130;-66
2023/03/19 06:55:05;;;;;;;14.00;8.73;;;;;;;9.74;100.00;101165.63;5094127;28;20078;-66
2023/03/19 06:57:31;;;;;;;13.27;8.85;;;;;;;9.75;100.00;101164.75;5093840;28;20047;-66
2023/03/19 06:59:56;;;;;;;11.90;8.98;;;;;;;9.76;100.00;101170.09;5093798;28;20480;-66
2023/03/19 07:02:22;;;;;;;10.05;8.35;;;;;;;9.82;100.00;101171.06;5093806;28;20028;-66
2023/03/19 07:04:47;;;;;;;12.13;8.55;;;;;;;9.87;100.00;101172.03;5093876;28;20061;-65
2023/03/19 07:07:12;;;;;;;10.77;8.48;;;;;;;10.01;100.00;101166.13;5093944;28;20417;-65
2023/03/19 07:09:38;;;;;;;11.55;8.75;;;;;;;10.26;100.00;101172.78;5093388;28;20063;-65
2023/03/19 07:12:03;;;;;;;13.18;8.82;;;;;;;10.49;100.00;101173.19;5093546;28;20028;-65
2023/03/19 07:14:29;;;;;;;13.70;8.85;;;;;;;10.78;100.00;101176.25;5093291;28;20073;-66
2023/03/19 07:16:55;;;;;;;16.25;9.30;;;;;;;11.02;100.00;101183.66;5093732;28;20032;-66
2023/03/19 07:19:20;;;;;;;12.23;8.30;;;;;;;11.23;100.00;101190.13;5075256;28;20165;-66
2023/03/19 07:21:45;;;;;;;11.52;8.32;;;;;;;11.33;100.00;101188.50;5093382;28;20481;-66
2023/03/19 07:24:11;;;;;;;10.30;8.13;;;;;;;11.59;100.00;101186.16;5093529;28;20035;-66
2023/03/19 07:26:36;;;;;;;10.13;7.95;;;;;;;11.80;98.87;101197.00;5093265;28;20550;-65
2023/03/19 07:29:02;;;;;;;11.48;8.43;;;;;;;12.02;97.27;101191.09;5093384;28;20028;-65
2023/03/19 07:31:27;;;;;;;9.35;7.55;;;;;;;12.16;94.94;101199.22;5093211;28;20484;-66
2023/03/19 07:33:53;;;;;;;11.30;8.18;;;;;;;12.32;94.58;101200.22;5093262;28;20047;-66
2023/03/19 07:36:18;;;;;;;10.23;7.57;;;;;;;12.50;93.70;101204.78;5093161;28;20024;-67
2023/03/19 07:38:44;;;;;;;11.10;7.70;;;;;;;12.63;92.36;101211.97;5093323;28;20061;-66
2023/03/19 07:41:09;;;;;;;9.68;7.35;;;;;;;12.76;92.19;101205.00;5093418;28;20063;-65
2023/03/19 07:43:34;;;;;;;9.93;7.38;;;;;;;12.99;91.62;101199.88;5092965;28;20016;-65
2023/03/19 07:46:00;;;;;;;8.02;6.40;;;;;;;13.17;90.00;101202.63;5093121;28;20032;-65
2023/03/19 07:48:26;;;;;;;8.98;6.18;;;;;;;13.06;87.08;101214.06;5093320;28;20035;-65
2023/03/19 07:50:51;;;;;;;9.82;6.50;;;;;;;12.85;87.35;101207.75;5093240;28;20036;-66
2023/03/19 07:53:17;;;;;;;12.77;6.78;;;;;;;12.71;87.64;101206.72;5095098;28;20032;-66
2023/03/19 07:55:42;;;;;;;9.68;6.68;;;;;;;12.73;87.85;101210.31;5097166;28;20024;-65
2023/03/19 07:58:08;;;;;;;10.05;6.70;;;;;;;12.98;89.04;101203.41;5097165;28;20024;-65
2023/03/19 08:00:33;;;;;;;12.98;6.20;;;;;;;13.26;86.85;101218.63;5097385;28;20100;-65
2023/03/19 08:02:59;;;;;;;9.60;5.90;;;;;;;13.62;86.36;101217.06;5097230;28;20107;-67
2023/03/19 08:07:53;;;;;;;11.52;5.57;;;;;;;13.97;82.72;101214.53;5081633;22;20453;-83
2023/03/19 08:10:18;;;;;;;10.93;5.85;;;;;;;14.09;82.25;101213.69;5056557;28;20033;-83
2023/03/19 08:12:44;;;;;;;14.65;5.85;;;;;;;14.16;81.66;101187.97;5056444;28;20029;-82
2023/03/19 08:15:10;;;;;;;10.77;5.45;;;;;;;14.44;79.50;101227.00;5056175;28;20029;-83
2023/03/19 08:17:37;;;;;;;10.35;5.20;;;;;;;14.32;78.26;101227.00;5038518;28;20025;-82
2023/03/19 08:20:15;;;;;;;13.20;5.30;;;;;;;14.17;79.47;101233.16;5056587;28;20483;-83
2023/03/19 08:22:41;;;;;;;12.13;4.80;;;;;;;13.97;77.94;101218.97;5056318;28;20056;-83
2023/03/19 08:25:08;;;;;;;11.68;4.80;;;;;;;13.92;77.82;101232.22;5038350;28;20407;-83
2023/03/19 08:27:34;;;;;;;16.00;5.53;;;;;;;13.98;78.40;101234.88;5056224;28;20044;-83
2023/03/19 08:30:02;;;;;;;14.43;5.03;;;;;;;14.25;77.81;101222.53;5056121;28;20523;-83
2023/03/19 08:32:28;;;;;;;14.80;5.80;;;;;;;14.46;76.52;101238.53;5021925;28;20361;-82
2023/03/19 08:34:53;;;;;;;15.40;5.03;;;;;;;14.66;76.33;101243.91;5038348;28;20033;-83
2023/03/19 08:37:19;;;;;;;10.80;4.85;;;;;;;14.96;76.12;101250.09;5056173;28;20021;-84
2023/03/19 08:39:44;;;;;;;13.75;5.18;;;;;;;15.13;73.65;101245.66;5056151;28;20073;-82
2023/03/19 08:42:10;;;;;;;12.32;5.03;;;;;;;15.25;73.59;101234.09;5021986;28;20025;-84
2023/03/19 08:44:35;;;;;;;11.10;5.47;;;;;;;15.55;73.62;101248.22;5041262;28;20512;-83
2023/03/19 08:47:01;;;;;;;16.58;5.35;;;;;;;15.63;70.88;101244.66;5041242;28;20032;-83
2023/03/19 08:49:28;;;;;;;13.60;4.93;;;;;;;15.79;69.92;101250.81;5058225;28;20056;-83
2023/03/19 08:51:53;;;;;;;10.15;4.80;;;;;;;15.68;68.41;101245.53;5075801;28;20118;-83
2023/03/19 08:54:19;;;;;;;14.77;4.78;;;;;;;15.75;70.18;101247.25;5075743;28;20111;-83
2023/03/19 08:56:44;;;;;;;17.02;5.05;;;;;;;15.84;67.86;101257.00;5057822;28;20028;-82
2023/03/19 08:59:09;;;;;;;12.73;5.10;;;;;;;15.88;68.78;101248.09;5057790;28;20524;-82
2023/03/19 09:01:36;;;;;;;16.17;5.00;;;;;;;16.21;69.54;101255.03;5057636;28;20561;-81
2023/03/19 09:04:01;;;;;;;14.93;5.10;;;;;;;16.49;67.95;101255.75;5075393;28;20032;-82
2023/03/19 09:06:27;;;;;;;11.02;4.55;;;;;;;16.62;67.64;101267.22;5075418;28;20460;-82
2023/03/19 09:08:52;;;;;;;11.30;4.80;;;;;;;16.65;66.16;101245.84;5057591;28;20368;-82
2023/03/19 09:11:17;;;;;;;11.38;4.90;;;;;;;16.34;64.40;101249.63;5040673;28;20471;-82
2023/03/19 09:13:43;;;;;;;10.98;4.80;;;;;;;16.12;66.36;101264.88;5057351;28;20032;-81
2023/03/19 09:16:09;;;;;;;14.68;5.05;;;;;;;15.85;67.94;101260.56;5075099;28;20036;-82
2023/03/19 09:18:35;;;;;;;13.88;4.70;;;;;;;15.67;67.89;101280.16;5075566;28;20059;-82
2023/03/19 09:21:00;;;;;;;11.48;4.70;;;;;;;15.36;69.16;101272.22;5075159;28;20025;-80
2023/03/19 09:23:26;;;;;;;12.45;5.22;;;;;;;15.11;69.39;101271.38;5075047;28;20107;-80
2023/03/19 09:25:52;;;;;;;16.17;4.70;;;;;;;15.02;69.88;101282.91;5074696;28;20108;-83
2023/03/19 09:28:18;;;;;;;11.27;4.95;;;;;;;15.05;70.17;101290.00;5074993;28;20337;-81
2023/03/19 09:30:48;;;;;;;14.95;4.85;;;;;;;15.23;70.16;101284.66;5074732;28;20040;-80
2023/03/19 09:33:16;;;;;;;10.77;4.63;;;;;;;15.28;68.72;101277.56;5056900;28;20020;-81
2023/03/19 09:35:42;;;;;;;13.45;4.60;;;;;;;15.24;68.04;101283.78;5056875;28;20055;-80
2023/03/19 09:38:07;;;;;;;11.88;4.57;;;;;;;15.37;69.07;101291.75;5056845;28;20059;-81
2023/03/19 09:40:56;;;;;;;16.27;4.55;;;;;;;15.30;68.60;101290.88;5074477;28;20039;-79
2023/03/19 09:43:37;;;;;;;13.35;4.30;;;;;;;15.37;68.36;101307.72;5042716;28;20036;-80
2023/03/19 09:46:09;;;;;;;12.38;4.78;;;;;;;15.23;68.70;101299.75;5074698;28;20020;-80
2023/03/19 09:48:42;;;;;;;12.70;5.32;;;;;;;15.32;69.29;101294.41;5074408;28;20056;-80
2023/03/19 09:51:17;;;;;;;10.93;4.53;;;;;;;15.71;68.23;101313.91;5074315;28;20134;-80
2023/03/19 09:53:54;;;;;;;16.83;4.90;;;;;;;15.82;67.72;101298.78;5074464;28;20024;-80
2023/03/19 09:56:19;;;;;;;14.40;4.55;;;;;;;15.95;66.88;101294.28;5074342;28;20021;-80
2023/03/19 09:58:46;;;;;;;16.02;4.60;;;;;;;16.46;65.67;101316.25;5074262;28;20071;-79
2023/03/19 10:01:24;;;;;;;15.65;4.75;;;;;;;16.63;64.79;101297.47;5074352;28;20035;-80
2023/03/19 10:04:26;;;;;;;14.13;5.15;;;;;;;17.22;65.71;101310.38;5074682;28;20024;-80
2023/03/19 10:07:01;;;;;;;13.98;4.55;;;;;;;17.62;62.31;101307.28;5074095;28;20091;-80
2023/03/19 10:09:44;;;;;;;14.55;4.57;;;;;;;18.07;61.83;101307.66;5073947;28;20028;-81
2023/03/19 10:12:24;;;;;;;15.25;4.82;;;;;;;18.37;59.76;101313.50;5074092;28;20016;-80
2023/03/19 10:15:14;;;;;;;11.98;4.57;;;;;;;18.29;59.10;101304.72;5073898;28;20020;-81
2023/03/19 10:17:46;;;;;;;15.55;4.45;;;;;;;18.59;58.83;101296.25;5073873;28;20361;-80
2023/03/19 10:20:11;;;;;;;13.60;3.83;;;;;;;18.95;57.28;101315.34;5074073;28;20043;-80
2023/03/19 10:22:43;;;;;;;16.08;4.78;;;;;;;19.14;57.65;101315.91;5074333;28;20624;-80
2023/03/19 10:25:18;;;;;;;11.90;4.78;;;;;;;19.00;57.82;101309.00;5073847;28;20078;-80
2023/03/19 10:27:46;;;;;;;13.57;4.30;;;;;;;18.60;57.14;101291.78;5073935;28;20024;-79
2023/03/19 10:30:15;;;;;;;14.18;4.72;;;;;;;18.73;58.29;101312.13;5073786;28;20028;-79
2023/03/19 10:32:44;;;;;;;13.73;4.30;;;;;;;18.87;56.82;101309.22;5073699;28;20028;-80
2023/03/19 10:35:33;;;;;;;11.85;4.28;;;;;;;19.14;57.66;101307.88;5073739;28;20445;-79
2023/03/19 10:38:15;;;;;;;12.93;4.25;;;;;;;19.55;56.47;101312.50;5073345;28;20020;-80
2023/03/19 10:40:55;;;;;;;11.85;3.80;;;;;;;19.71;55.81;101324.75;5073899;28;20032;-80
2023/03/19 10:43:24;;;;;;;11.38;3.58;;;;;;;19.28;55.56;101303.19;5073562;28;20107;-80
2023/03/19 10:45:49;;;;;;;11.13;3.80;;;;;;;19.30;54.92;101320.09;5073266;28;20023;-80
2023/03/19 10:48:16;;;;;;;14.65;3.70;;;;;;;19.01;54.41;101312.56;5073469;28;20112;-79
2023/03/19 10:50:52;;;;;;;10.93;4.05;;;;;;;19.18;55.89;101328.34;5073076;28;20108;-79
2023/03/19 10:53:17;;;;;;;14.85;3.90;;;;;;;19.15;55.51;101323.94;5073543;28;20025;-82
2023/03/19 10:56:04;;;;;;;11.93;4.35;;;;;;;19.07;56.51;101316.97;5055245;28;20024;-80
2023/03/19 10:58:32;;;;;;;9.60;3.63;;;;;;;18.92;55.96;101318.06;5073372;28;20024;-80
2023/03/19 11:01:10;;;;;;;11.65;3.70;;;;;;;18.70;56.65;101309.50;5055615;28;20031;-80
2023/03/19 11:03:56;;;;;;;9.93;3.60;;;;;;;18.39;56.46;101317.06;5072816;28;20032;-79
2023/03/19 11:06:35;;;;;;;11.13;3.53;;;;;;;18.08;57.52;101327.28;5072462;28;20040;-81
2023/03/19 11:09:16;;;;;;;13.43;4.00;;;;;;;17.90;59.18;101328.38;5072736;28;20051;-81
2023/03/19 11:11:45;;;;;;;13.77;4.20;;;;;;;17.69;58.92;101333.06;5072763;28;20116;-82
2023/03/19 11:14:21;;;;;;;12.57;3.80;;;;;;;17.57;59.22;101330.50;5072647;28;20034;-82
2023/03/19 11:17:01;;;;;;;13.38;4.22;;;;;;;17.43;60.63;101330.66;5072951;28;20513;-83
2023/03/19 11:19:29;;;;;;;13.13;4.55;;;;;;;17.43;60.14;101335.06;5072988;28;20063;-83
2023/03/19 11:22:11;;;;;;;11.70;4.53;;;;;;;17.32;60.56;101318.28;5054707;28;20036;-82
2023/03/19 11:24:41;;;;;;;17.83;6.07;;;;;;;17.44;60.11;101337.75;5054783;28;20028;-81